Nyk Constellation — V7NP4 — position and weather

sailwx.info

Track history (hours):
 
Tides and Currents Weather Stations Pressure Air Temp Water Temp Dewpoint Dewpoint Depression Visibility Wind Speed Wind Dir Waves Ship Positions

Nyk Constellation

Last reported at 2017-Aug-15 15:43 UTC. Time now 2017-Aug-18 12:42 UTC.
Position N 38°11' W 125°59'.

Length 294 m; draft 10.2 m.

Type: Cargo ship. MMSI: 538002992.

Date/timePositionNaut miles runAvg speedWind from/ knotsBaromVisibWave heightAir tempDewpointWater temp
2017-Aug-15 15:43N 38°11' W 125°59'514.2
2017-Aug-15 15:23N 38°11' W 125°53'2514.3
2017-Aug-15 13:36N 38°11' W 125°21'513.7
2017-Aug-15 13:14N 38°11' W 125°15'313.6
2017-Aug-15 13:00N 38°11' W 125°11'1713.5
2017-Aug-15 11:45N 38°11' W 124°49'412.9
2017-Aug-15 11:25N 38°11' W 124°44'513.3
2017-Aug-15 11:00N 38°11' W 124°37'612.9
2017-Aug-15 10:30N 38°11' W 124°28'713.1
2017-Aug-15 10:00N 38°11' W 124°20'713.1
2017-Aug-15 09:30N 38°11' W 124°12'713.2
2017-Aug-15 09:00N 38°11' W 124°03'713.1
2017-Aug-15 08:30N 38°11' W 123°55'612.8
2017-Aug-15 08:00N 38°11' W 123°47'713.0
2017-Aug-15 07:30N 38°11' W 123°39'612.9
2017-Aug-15 07:00N 38°11' W 123°30'612.0
2017-Aug-15 06:30N 38°12' W 123°23'510.3
2017-Aug-15 06:00N 38°08' W 123°19'5 9.1
2017-Aug-15 05:30N 38°04' W 123°15'5 9.5
2017-Aug-15 05:00N 38°01' W 123°11'5 9.3
2017-Aug-15 04:30N 37°58' W 123°07'5 9.2
2017-Aug-15 04:00N 37°55' W 123°01'5 9.2
2017-Aug-15 03:30N 37°53' W 122°56'5 9.2
2017-Aug-15 03:00N 37°51' W 122°51'5 9.3
2017-Aug-15 02:30N 37°48' W 122°46'4 9.0
2017-Aug-15 02:01N 37°46' W 122°42'4 8.0
2017-Aug-15 01:31N 37°46' W 122°36'611.5
2017-Aug-15 01:01N 37°49' W 122°30'611.3
2017-Aug-15 00:30N 37°48' W 122°23'3 6.7
2017-Aug-15 00:00N 37°48' W 122°19'1 1.8
2017-Aug-14 23:31N 37°48' W 122°17'1 2.3
2017-Aug-14 22:59N 37°48' W 122°19'0 0.0
2017-Aug-14 22:29N 37°48' W 122°19'0 0.0
2017-Aug-14 21:59N 37°48' W 122°19'0 0.0
2017-Aug-14 21:29N 37°48' W 122°19'0 0.0
2017-Aug-14 20:59N 37°48' W 122°19'0 0.0
2017-Aug-14 20:29N 37°48' W 122°19'0 0.0
2017-Aug-14 19:59N 37°48' W 122°19'0 0.0
2017-Aug-14 19:29N 37°48' W 122°19'0 0.0
2017-Aug-14 18:59N 37°48' W 122°19'0 0.0
2017-Aug-14 18:29N 37°48' W 122°19'0 0.0
2017-Aug-14 17:59N 37°48' W 122°19'0 0.0
2017-Aug-14 17:29N 37°48' W 122°19'0 0.0
2017-Aug-14 16:59N 37°48' W 122°19'0 0.0
2017-Aug-14 16:29N 37°48' W 122°19'0 0.0
2017-Aug-14 15:59N 37°48' W 122°19'0 0.0
2017-Aug-14 15:29N 37°48' W 122°19'0 0.0
2017-Aug-14 14:59N 37°48' W 122°19'0 0.0
2017-Aug-14 14:29N 37°48' W 122°19'0 0.0
2017-Aug-14 13:59N 37°48' W 122°19'0 0.0
2017-Aug-14 13:29N 37°48' W 122°19'0 0.0
2017-Aug-14 12:59N 37°48' W 122°19'0 0.0
2017-Aug-14 12:29N 37°48' W 122°19'0 0.0
2017-Aug-14 11:59N 37°48' W 122°19'0 0.0
2017-Aug-14 11:29N 37°48' W 122°19'0 0.0
2017-Aug-14 10:59N 37°48' W 122°19'0 0.0
2017-Aug-14 10:29N 37°48' W 122°19'0 0.0
2017-Aug-14 09:59N 37°48' W 122°19'0 0.0
2017-Aug-14 09:29N 37°48' W 122°19'0 0.0
2017-Aug-14 08:59N 37°48' W 122°19'0 0.0
2017-Aug-14 08:29N 37°48' W 122°19'0 0.0
2017-Aug-14 07:59N 37°48' W 122°19'0 0.0
2017-Aug-14 07:29N 37°48' W 122°19'0 0.0
2017-Aug-14 06:59N 37°48' W 122°19'0 0.0
2017-Aug-14 06:29N 37°48' W 122°19'0 0.0
2017-Aug-14 05:59N 37°48' W 122°19'0 0.0
2017-Aug-14 05:29N 37°48' W 122°19'0 0.0
2017-Aug-14 04:59N 37°48' W 122°19'0 0.0
2017-Aug-14 04:29N 37°48' W 122°19'0 0.0
2017-Aug-14 03:59N 37°48' W 122°19'0 0.0
2017-Aug-14 03:29N 37°48' W 122°19'0 0.0
2017-Aug-14 02:59N 37°48' W 122°19'0 0.0
2017-Aug-14 02:29N 37°48' W 122°19'0 0.0
2017-Aug-14 01:59N 37°48' W 122°19'0 0.0
2017-Aug-14 01:29N 37°48' W 122°19'0 0.0
2017-Aug-14 00:59N 37°48' W 122°19'0 0.0
2017-Aug-14 00:29N 37°48' W 122°19'0 0.0
2017-Aug-13 23:59N 37°48' W 122°19'0 0.0
2017-Aug-13 23:29N 37°48' W 122°19'0 0.0
2017-Aug-13 22:59N 37°48' W 122°19'0 0.0
2017-Aug-13 22:29N 37°48' W 122°19'0 0.0
2017-Aug-13 21:59N 37°48' W 122°19'1 2.2
2017-Aug-13 21:30N 37°48' W 122°20'5 9.3
2017-Aug-13 21:00N 37°49' W 122°26'612.5
2017-Aug-13 20:30N 37°47' W 122°34'612.8
2017-Aug-13 20:00N 37°44' W 122°41'4 8.9
2017-Aug-13 19:30N 37°40' W 122°40'5 9.4
2017-Aug-13 19:00N 37°35' W 122°40'5 9.7
2017-Aug-13 18:30N 37°31' W 122°40'5 9.7
2017-Aug-13 18:00N 37°26' W 122°40'5 9.7
2017-Aug-13 17:30N 37°21' W 122°40'5 9.7
2017-Aug-13 17:00N 37°16' W 122°40'510.3
2017-Aug-13 16:30N 37°11' W 122°39'3 6.6
2017-Aug-13 16:00N 37°08' W 122°38'1 1.7
2017-Aug-13 15:30N 37°08' W 122°39'1 1.7
2017-Aug-13 15:00N 37°09' W 122°39'1 1.6
2017-Aug-13 14:30N 37°10' W 122°40'0 0.4
2017-Aug-13 14:00N 37°10' W 122°40'4 8.0
2017-Aug-13 13:30N 37°06' W 122°38'612.5
2017-Aug-13 13:00N 37°00' W 122°36'712.6
2017-Aug-13 12:29N 36°54' W 122°33'1012.7
2017-Aug-13 11:40N 36°44' W 122°30'313.0
2017-Aug-13 11:26N 36°41' W 122°28'613.3
2017-Aug-13 11:00N 36°36' W 122°24'613.3
2017-Aug-13 10:30N 36°31' W 122°20'713.3
2017-Aug-13 09:57N 36°24' W 122°16'613.1
2017-Aug-13 09:30N 36°19' W 122°12'1012.9
2017-Aug-13 08:44N 36°10' W 122°06'312.4
2017-Aug-13 08:30N 36°08' W 122°04'612.7
2017-Aug-13 08:00N 36°02' W 122°00'1012.0
2017-Aug-13 07:08N 35°53' W 121°54'111.7
2017-Aug-13 07:00N 35°52' W 121°53'612.0
2017-Aug-13 06:30N 35°47' W 121°50'612.3
2017-Aug-13 06:00N 35°41' W 121°46'612.3
2017-Aug-13 05:30N 35°36' W 121°42'612.1
2017-Aug-13 04:59N 35°30' W 121°38'612.1
2017-Aug-13 04:30N 35°25' W 121°35'612.2
2017-Aug-13 04:00N 35°20' W 121°31'612.3
2017-Aug-13 03:30N 35°15' W 121°28'612.8
2017-Aug-13 03:00N 35°09' W 121°24'612.5
2017-Aug-13 02:30N 35°04' W 121°20'612.1
2017-Aug-13 02:01N 34°58' W 121°16'712.9
2017-Aug-13 01:30N 34°53' W 121°13'713.1
2017-Aug-13 00:58N 34°47' W 121°08'612.6
2017-Aug-13 00:30N 34°42' W 121°05'612.4
2017-Aug-13 00:00N 34°36' W 121°01'612.6
2017-Aug-12 23:30N 34°31' W 120°57'612.2
2017-Aug-12 23:00N 34°26' W 120°52'713.3
2017-Aug-12 22:30N 34°25' W 120°44'713.3
2017-Aug-12 22:00N 34°23' W 120°36'713.6
2017-Aug-12 21:30N 34°21' W 120°29'713.7
2017-Aug-12 21:00N 34°19' W 120°21'713.9
2017-Aug-12 20:30N 34°18' W 120°12'713.5
2017-Aug-12 20:00N 34°16' W 120°05'713.7
2017-Aug-12 19:30N 34°14' W 119°57'713.5
2017-Aug-12 19:00N 34°12' W 119°49'713.5
2017-Aug-12 18:30N 34°10' W 119°41'713.6
2017-Aug-12 18:00N 34°09' W 119°33'713.9
2017-Aug-12 17:30N 34°07' W 119°25'713.7
2017-Aug-12 17:00N 34°05' W 119°17'713.4
2017-Aug-12 16:31N 34°02' W 119°10'713.2
2017-Aug-12 16:00N 33°59' W 119°03'510.7
2017-Aug-12 15:31N 33°56' W 118°57'510.7
2017-Aug-12 15:00N 33°53' W 118°52'510.6
2017-Aug-12 14:30N 33°51' W 118°46'511.0
2017-Aug-12 14:01N 33°48' W 118°40'611.0
2017-Aug-12 13:31N 33°45' W 118°35'510.5
2017-Aug-12 13:01N 33°43' W 118°29'510.3
2017-Aug-12 12:31N 33°40' W 118°24'510.1
2017-Aug-12 12:00N 33°39' W 118°18'4 8.9
2017-Aug-12 11:30N 33°42' W 118°15'3 5.6
2017-Aug-12 11:00N 33°45' W 118°16'1 1.8
2017-Aug-12 10:31N 33°45' W 118°16'0 0.0
2017-Aug-12 10:00N 33°45' W 118°16'0 0.0
2017-Aug-12 09:29N 33°45' W 118°16'0 0.0
2017-Aug-12 08:59N 33°45' W 118°16'0 0.0
2017-Aug-12 08:29N 33°45' W 118°16'0 0.1
2017-Aug-12 07:59N 33°45' W 118°16'0 0.1
2017-Aug-12 07:29N 33°45' W 118°16'0 0.0
2017-Aug-12 06:59N 33°45' W 118°16'0 0.0
2017-Aug-12 06:29N 33°45' W 118°16'0 0.0
2017-Aug-12 05:59N 33°45' W 118°16'0 0.1
2017-Aug-12 05:29N 33°45' W 118°16'0 0.1
2017-Aug-12 04:59N 33°45' W 118°16'0 0.0
2017-Aug-12 04:29N 33°45' W 118°16'0 0.0
2017-Aug-12 03:59N 33°45' W 118°16'0 0.0
2017-Aug-12 03:29N 33°45' W 118°16'0 0.0
2017-Aug-12 03:00N 33°45' W 118°16'0 0.0
2017-Aug-12 02:29N 33°45' W 118°16'0 0.0
2017-Aug-12 01:59N 33°45' W 118°16'0 0.0
2017-Aug-12 01:29N 33°45' W 118°16'0 0.0
2017-Aug-12 00:59N 33°45' W 118°16'0 0.0
2017-Aug-12 00:29N 33°45' W 118°16'0 0.1
2017-Aug-11 23:59N 33°45' W 118°16'0 0.1
2017-Aug-11 23:26N 33°45' W 118°16'0 0.0
2017-Aug-11 22:59N 33°45' W 118°16'0 0.0
2017-Aug-11 22:29N 33°45' W 118°16'0 0.1
2017-Aug-11 21:59N 33°45' W 118°16'0 0.1
2017-Aug-11 21:29N 33°45' W 118°16'0 0.0
2017-Aug-11 20:59N 33°45' W 118°16'0 0.0
2017-Aug-11 20:29N 33°45' W 118°16'0 0.0
2017-Aug-11 19:59N 33°45' W 118°16'0 0.0
2017-Aug-11 19:23N 33°45' W 118°16'0 0.0
2017-Aug-11 18:59N 33°45' W 118°16'0 0.0
2017-Aug-11 18:29N 33°45' W 118°16'0 0.0
2017-Aug-11 17:53N 33°45' W 118°16'0 0.0
2017-Aug-11 17:29N 33°45' W 118°16'0 0.1
2017-Aug-11 16:56N 33°45' W 118°16'0 0.1
2017-Aug-11 16:29N 33°45' W 118°16'0 0.0
2017-Aug-11 15:59N 33°45' W 118°16'0 0.0
2017-Aug-11 15:29N 33°45' W 118°16'0 0.0
2017-Aug-11 15:00N 33°45' W 118°16'0 0.0
2017-Aug-11 13:59N 33°45' W 118°16'0 0.0
2017-Aug-11 13:29N 33°45' W 118°16'0 0.0
2017-Aug-11 12:59N 33°45' W 118°16'0 0.0
2017-Aug-11 12:29N 33°45' W 118°16'0 0.0
2017-Aug-11 11:59N 33°45' W 118°16'0 0.0
2017-Aug-11 11:29N 33°45' W 118°16'0 0.0
2017-Aug-11 10:59N 33°45' W 118°16'0 0.0
2017-Aug-11 10:29N 33°45' W 118°16'0 0.1
2017-Aug-11 09:59N 33°45' W 118°16'0 0.1
2017-Aug-11 09:29N 33°45' W 118°16'0 0.0
2017-Aug-11 08:59N 33°45' W 118°16'0 0.0
2017-Aug-11 08:23N 33°45' W 118°16'0 0.0
2017-Aug-11 07:59N 33°45' W 118°16'0 0.0
2017-Aug-11 07:29N 33°45' W 118°16'0 0.1
2017-Aug-11 06:59N 33°45' W 118°16'0 0.1
2017-Aug-11 06:29N 33°45' W 118°16'0 0.0
2017-Aug-11 05:59N 33°45' W 118°16'0 0.0
2017-Aug-11 05:29N 33°45' W 118°16'0 0.0
2017-Aug-11 04:59N 33°45' W 118°16'0 0.0
2017-Aug-11 04:29N 33°45' W 118°16'0 0.0
2017-Aug-11 03:59N 33°45' W 118°16'0 0.0
2017-Aug-11 03:29N 33°45' W 118°16'0 0.0
2017-Aug-11 02:59N 33°45' W 118°16'0 0.0
2017-Aug-11 02:26N 33°45' W 118°16'0 0.0
2017-Aug-11 01:59N 33°45' W 118°16'0 0.0
2017-Aug-11 01:29N 33°45' W 118°16'0 0.1
2017-Aug-11 00:59N 33°45' W 118°16'0 0.1
2017-Aug-11 00:29N 33°45' W 118°16'0 0.0
2017-Aug-10 23:59N 33°45' W 118°16'0 0.0
2017-Aug-10 23:29N 33°45' W 118°16'0 0.0
2017-Aug-10 22:59N 33°45' W 118°16'0 0.0
2017-Aug-10 22:29N 33°45' W 118°16'0 0.0
2017-Aug-10 21:59N 33°45' W 118°16'0 0.0
2017-Aug-10 21:29N 33°45' W 118°16'0 0.0
2017-Aug-10 20:59N 33°45' W 118°16'0 0.0
2017-Aug-10 20:29N 33°45' W 118°16'0 0.0
2017-Aug-10 19:59N 33°45' W 118°16'0 0.0
2017-Aug-10 19:29N 33°45' W 118°16'0 0.0
2017-Aug-10 18:59N 33°45' W 118°16'0 0.1
2017-Aug-10 18:29N 33°45' W 118°16'0 0.1
2017-Aug-10 17:59N 33°45' W 118°16'0 0.0
2017-Aug-10 17:29N 33°45' W 118°16'0 0.0
2017-Aug-10 16:59N 33°45' W 118°16'0 0.0
2017-Aug-10 16:26N 33°45' W 118°16'0 0.0
2017-Aug-10 15:59N 33°45' W 118°16'0 0.0
2017-Aug-10 15:29N 33°45' W 118°16'0 0.0
2017-Aug-10 14:59N 33°45' W 118°16'0 0.0
2017-Aug-10 14:23N 33°45' W 118°16'0 0.0
2017-Aug-10 13:56N 33°45' W 118°16'0 0.0
2017-Aug-10 13:29N 33°45' W 118°16'0 0.1
2017-Aug-10 12:41N 33°45' W 118°16'0 0.2
2017-Aug-10 12:23N 33°45' W 118°16'0 0.0
2017-Aug-10 11:59N 33°45' W 118°16'0 0.0
2017-Aug-10 11:29N 33°45' W 118°16'0 0.1
2017-Aug-10 10:59N 33°45' W 118°16'0 0.1
2017-Aug-10 10:26N 33°45' W 118°16'0 0.1
2017-Aug-10 09:59N 33°45' W 118°16'0 0.1
2017-Aug-10 09:29N 33°45' W 118°16'0 0.0
2017-Aug-10 08:59N 33°45' W 118°16'0 0.0
2017-Aug-10 08:29N 33°45' W 118°16'0 0.0
2017-Aug-10 07:53N 33°45' W 118°16'0 0.0
2017-Aug-10 07:29N 33°45' W 118°16'0 0.0
2017-Aug-10 06:59N 33°45' W 118°16'0 0.0
2017-Aug-10 06:29N 33°45' W 118°16'0 0.0
2017-Aug-10 05:59N 33°45' W 118°16'0 0.0
2017-Aug-10 05:29N 33°45' W 118°16'0 0.0
2017-Aug-10 04:59N 33°45' W 118°16'0 0.0
2017-Aug-10 04:29N 33°45' W 118°16'0 0.0
2017-Aug-10 03:59N 33°45' W 118°16'0 0.0
2017-Aug-10 03:30N 33°45' W 118°16'0 0.0
2017-Aug-10 02:59N 33°45' W 118°16'0 0.0
2017-Aug-10 02:29N 33°45' W 118°16'0 0.0
2017-Aug-10 01:59N 33°45' W 118°16'0 0.0
2017-Aug-10 01:29N 33°45' W 118°16'0 0.0
2017-Aug-10 00:59N 33°45' W 118°16'0 0.0
2017-Aug-10 00:29N 33°45' W 118°16'0 0.0
2017-Aug-09 23:59N 33°45' W 118°16'0 0.0
2017-Aug-09 23:29N 33°45' W 118°16'0 0.1
2017-Aug-09 23:00N 33°45' W 118°16'2 3.6
2017-Aug-09 22:30N 33°44' W 118°16'3 6.4
2017-Aug-09 22:00N 33°41' W 118°14'3 6.5
2017-Aug-09 21:30N 33°38' W 118°15'4 8.8
2017-Aug-09 21:00N 33°36' W 118°20'510.2
2017-Aug-09 20:30N 33°38' W 118°25'510.3
2017-Aug-09 20:00N 33°41' W 118°31'611.1
2017-Aug-09 19:30N 33°43' W 118°36'611.2
2017-Aug-09 19:00N 33°46' W 118°42'611.1
2017-Aug-09 18:30N 33°49' W 118°48'611.1
2017-Aug-09 18:00N 33°52' W 118°54'510.8
2017-Aug-09 17:30N 33°55' W 118°59'510.5
2017-Aug-09 17:00N 33°57' W 119°05'510.9
2017-Aug-09 16:30N 33°60' W 119°11'510.9
2017-Aug-09 16:00N 34°02' W 119°17'5 9.4
2017-Aug-09 15:30N 34°03' W 119°22'714.8
2017-Aug-09 15:00N 34°05' W 119°31'918.5
2017-Aug-09 14:30N 34°08' W 119°41'918.1
2017-Aug-09 14:00N 34°10' W 119°52'917.8
2017-Aug-09 13:30N 34°13' W 120°02'918.2
2017-Aug-09 13:00N 34°15' W 120°13'917.5
2017-Aug-09 12:30N 34°18' W 120°23'917.6
2017-Aug-09 12:00N 34°20' W 120°33'917.9
2017-Aug-09 11:30N 34°23' W 120°44'918.1
2017-Aug-09 11:01N 34°25' W 120°54'917.9
2017-Aug-09 10:30N 34°27' W 121°05'917.9
2017-Aug-09 10:00N 34°30' W 121°15'917.5
2017-Aug-09 09:30N 34°33' W 121°25'917.6
2017-Aug-09 09:01N 34°36' W 121°35'917.7
2017-Aug-09 08:31N 34°39' W 121°45'917.8
2017-Aug-09 08:00N 34°42' W 121°56'917.3
2017-Aug-09 07:30N 34°45' W 122°06'917.5
2017-Aug-09 06:58N 34°48' W 122°16'817.3
2017-Aug-09 06:29N 34°51' W 122°26'817.4
2017-Aug-09 06:00N 34°53' W 122°35'918.0
2017-Aug-09 05:31N 34°56' W 122°46'917.9
2017-Aug-09 05:00N 34°59' W 122°56'917.6
2017-Aug-09 04:30N 35°02' W 123°06'917.7
2017-Aug-09 04:00N 35°05' W 123°17'918.3
2017-Aug-09 03:31N 35°08' W 123°27'1119.6
2017-Aug-09 02:58N 35°11' W 123°39'16719.7
2017-Aug-08 18:29N 36°09' W 126°52'10719.4
2017-Aug-08 12:58N 37°04' W 128°46'1019.8
2017-Aug-08 12:29N 37°09' W 128°56'1719.1
2017-Aug-08 11:34N 37°19' W 129°15'119.3
2017-Aug-08 11:30N 37°19' W 129°16'1019.1
2017-Aug-08 10:58N 37°25' W 129°27'919.2
2017-Aug-08 10:31N 37°29' W 129°37'1019.2
2017-Aug-08 09:58N 37°35' W 129°48'919.3
2017-Aug-08 09:31N 37°39' W 129°57'1119.4
2017-Aug-08 08:56N 37°45' W 130°09'819.1
2017-Aug-08 08:30N 37°50' W 130°18'1119.1
2017-Aug-08 07:57N 37°55' W 130°30'1319.3
2017-Aug-08 07:15N 38°02' W 130°44'519.0
2017-Aug-08 07:00N 38°04' W 130°49'1018.9
2017-Aug-08 06:30N 38°09' W 130°60'919.0
2017-Aug-08 06:00N 38°14' W 131°10'1018.8
2017-Aug-08 05:30N 38°19' W 131°20'918.8
2017-Aug-08 05:01N 38°24' W 131°30'1418.9
2017-Aug-08 04:16N 38°32' W 131°45'818.9
2017-Aug-08 03:50N 38°36' W 131°54'618.9
2017-Aug-08 03:30N 38°39' W 132°01'1019.1
2017-Aug-08 03:00N 38°44' W 132°12'919.3
2017-Aug-08 02:31N 38°49' W 132°22'1219.4
2017-Aug-08 01:52N 38°55' W 132°36'719.4
2017-Aug-08 01:30N 38°59' W 132°43'4219.2
2017-Aug-07 23:19N 39°21' W 133°29'619.0
2017-Aug-07 23:00N 39°25' W 133°36'1319.2
2017-Aug-07 22:18N 39°31' W 133°51'8019.1
2017-Aug-07 18:05N 40°14' W 135°20'419.0
2017-Aug-07 17:53N 40°16' W 135°24'1619.2
2017-Aug-07 17:03N 40°24' W 135°42'119.3
2017-Aug-07 17:00N 40°24' W 135°43'2119.4
2017-Aug-07 15:54N 40°36' W 136°07'919.4
2017-Aug-07 15:27N 40°40' W 136°17'919.4
2017-Aug-07 15:00N 40°45' W 136°27'1019.4
2017-Aug-07 14:29N 40°50' W 136°38'1919.7
2017-Aug-07 13:32N 40°60' W 136°59'118.9
2017-Aug-07 13:30N 41°00' W 137°00'1019.5
2017-Aug-07 13:00N 41°05' W 137°11'1019.5
2017-Aug-07 12:30N 41°09' W 137°23'1019.8
2017-Aug-07 11:59N 41°14' W 137°35'  
Track history (hours):
 
Tides and Currents Weather Stations Pressure Air Temp Water Temp Dewpoint Dewpoint Depression Visibility Wind Speed Wind Dir Waves Ship Positions

Nyk Constellation

Last reported at 2017-Aug-15 15:43 UTC. Time now 2017-Aug-18 12:42 UTC.
Position N 38°11' W 125°59'.

Length 294 m; draft 10.2 m.

Type: Cargo ship. MMSI: 538002992.

Date/timePositionNaut miles runAvg speedWind from/ knotsBaromVisibWave heightAir tempDewpointWater temp
2017-Aug-15 15:43N 38°11' W 125°59'514.2
2017-Aug-15 15:23N 38°11' W 125°53'2514.3
2017-Aug-15 13:36N 38°11' W 125°21'513.7
2017-Aug-15 13:14N 38°11' W 125°15'313.6
2017-Aug-15 13:00N 38°11' W 125°11'1713.5
2017-Aug-15 11:45N 38°11' W 124°49'412.9
2017-Aug-15 11:25N 38°11' W 124°44'513.3
2017-Aug-15 11:00N 38°11' W 124°37'612.9
2017-Aug-15 10:30N 38°11' W 124°28'713.1
2017-Aug-15 10:00N 38°11' W 124°20'713.1
2017-Aug-15 09:30N 38°11' W 124°12'713.2
2017-Aug-15 09:00N 38°11' W 124°03'713.1
2017-Aug-15 08:30N 38°11' W 123°55'612.8
2017-Aug-15 08:00N 38°11' W 123°47'713.0
2017-Aug-15 07:30N 38°11' W 123°39'612.9
2017-Aug-15 07:00N 38°11' W 123°30'612.0
2017-Aug-15 06:30N 38°12' W 123°23'510.3
2017-Aug-15 06:00N 38°08' W 123°19'5 9.1
2017-Aug-15 05:30N 38°04' W 123°15'5 9.5
2017-Aug-15 05:00N 38°01' W 123°11'5 9.3
2017-Aug-15 04:30N 37°58' W 123°07'5 9.2
2017-Aug-15 04:00N 37°55' W 123°01'5 9.2
2017-Aug-15 03:30N 37°53' W 122°56'5 9.2
2017-Aug-15 03:00N 37°51' W 122°51'5 9.3
2017-Aug-15 02:30N 37°48' W 122°46'4 9.0
2017-Aug-15 02:01N 37°46' W 122°42'4 8.0
2017-Aug-15 01:31N 37°46' W 122°36'611.5
2017-Aug-15 01:01N 37°49' W 122°30'611.3
2017-Aug-15 00:30N 37°48' W 122°23'3 6.7
2017-Aug-15 00:00N 37°48' W 122°19'1 1.8
2017-Aug-14 23:31N 37°48' W 122°17'1 2.3
2017-Aug-14 22:59N 37°48' W 122°19'0 0.0
2017-Aug-14 22:29N 37°48' W 122°19'0 0.0
2017-Aug-14 21:59N 37°48' W 122°19'0 0.0
2017-Aug-14 21:29N 37°48' W 122°19'0 0.0
2017-Aug-14 20:59N 37°48' W 122°19'0 0.0
2017-Aug-14 20:29N 37°48' W 122°19'0 0.0
2017-Aug-14 19:59N 37°48' W 122°19'0 0.0
2017-Aug-14 19:29N 37°48' W 122°19'0 0.0
2017-Aug-14 18:59N 37°48' W 122°19'0 0.0
2017-Aug-14 18:29N 37°48' W 122°19'0 0.0
2017-Aug-14 17:59N 37°48' W 122°19'0 0.0
2017-Aug-14 17:29N 37°48' W 122°19'0 0.0
2017-Aug-14 16:59N 37°48' W 122°19'0 0.0
2017-Aug-14 16:29N 37°48' W 122°19'0 0.0
2017-Aug-14 15:59N 37°48' W 122°19'0 0.0
2017-Aug-14 15:29N 37°48' W 122°19'0 0.0
2017-Aug-14 14:59N 37°48' W 122°19'0 0.0
2017-Aug-14 14:29N 37°48' W 122°19'0 0.0
2017-Aug-14 13:59N 37°48' W 122°19'0 0.0
2017-Aug-14 13:29N 37°48' W 122°19'0 0.0
2017-Aug-14 12:59N 37°48' W 122°19'0 0.0
2017-Aug-14 12:29N 37°48' W 122°19'0 0.0
2017-Aug-14 11:59N 37°48' W 122°19'0 0.0
2017-Aug-14 11:29N 37°48' W 122°19'0 0.0
2017-Aug-14 10:59N 37°48' W 122°19'0 0.0
2017-Aug-14 10:29N 37°48' W 122°19'0 0.0
2017-Aug-14 09:59N 37°48' W 122°19'0 0.0
2017-Aug-14 09:29N 37°48' W 122°19'0 0.0
2017-Aug-14 08:59N 37°48' W 122°19'0 0.0
2017-Aug-14 08:29N 37°48' W 122°19'0 0.0
2017-Aug-14 07:59N 37°48' W 122°19'0 0.0
2017-Aug-14 07:29N 37°48' W 122°19'0 0.0
2017-Aug-14 06:59N 37°48' W 122°19'0 0.0
2017-Aug-14 06:29N 37°48' W 122°19'0 0.0
2017-Aug-14 05:59N 37°48' W 122°19'0 0.0
2017-Aug-14 05:29N 37°48' W 122°19'0 0.0
2017-Aug-14 04:59N 37°48' W 122°19'0 0.0
2017-Aug-14 04:29N 37°48' W 122°19'0 0.0
2017-Aug-14 03:59N 37°48' W 122°19'0 0.0
2017-Aug-14 03:29N 37°48' W 122°19'0 0.0
2017-Aug-14 02:59N 37°48' W 122°19'0 0.0
2017-Aug-14 02:29N 37°48' W 122°19'0 0.0
2017-Aug-14 01:59N 37°48' W 122°19'0 0.0
2017-Aug-14 01:29N 37°48' W 122°19'0 0.0
2017-Aug-14 00:59N 37°48' W 122°19'0 0.0
2017-Aug-14 00:29N 37°48' W 122°19'0 0.0
2017-Aug-13 23:59N 37°48' W 122°19'0 0.0
2017-Aug-13 23:29N 37°48' W 122°19'0 0.0
2017-Aug-13 22:59N 37°48' W 122°19'0 0.0
2017-Aug-13 22:29N 37°48' W 122°19'0 0.0
2017-Aug-13 21:59N 37°48' W 122°19'1 2.2
2017-Aug-13 21:30N 37°48' W 122°20'5 9.3
2017-Aug-13 21:00N 37°49' W 122°26'612.5
2017-Aug-13 20:30N 37°47' W 122°34'612.8
2017-Aug-13 20:00N 37°44' W 122°41'4 8.9
2017-Aug-13 19:30N 37°40' W 122°40'5 9.4
2017-Aug-13 19:00N 37°35' W 122°40'5 9.7
2017-Aug-13 18:30N 37°31' W 122°40'5 9.7
2017-Aug-13 18:00N 37°26' W 122°40'5 9.7
2017-Aug-13 17:30N 37°21' W 122°40'5 9.7
2017-Aug-13 17:00N 37°16' W 122°40'510.3
2017-Aug-13 16:30N 37°11' W 122°39'3 6.6
2017-Aug-13 16:00N 37°08' W 122°38'1 1.7
2017-Aug-13 15:30N 37°08' W 122°39'1 1.7
2017-Aug-13 15:00N 37°09' W 122°39'1 1.6
2017-Aug-13 14:30N 37°10' W 122°40'0 0.4
2017-Aug-13 14:00N 37°10' W 122°40'4 8.0
2017-Aug-13 13:30N 37°06' W 122°38'612.5
2017-Aug-13 13:00N 37°00' W 122°36'712.6
2017-Aug-13 12:29N 36°54' W 122°33'1012.7
2017-Aug-13 11:40N 36°44' W 122°30'313.0
2017-Aug-13 11:26N 36°41' W 122°28'613.3
2017-Aug-13 11:00N 36°36' W 122°24'613.3
2017-Aug-13 10:30N 36°31' W 122°20'713.3
2017-Aug-13 09:57N 36°24' W 122°16'613.1
2017-Aug-13 09:30N 36°19' W 122°12'1012.9
2017-Aug-13 08:44N 36°10' W 122°06'312.4
2017-Aug-13 08:30N 36°08' W 122°04'612.7
2017-Aug-13 08:00N 36°02' W 122°00'1012.0
2017-Aug-13 07:08N 35°53' W 121°54'111.7
2017-Aug-13 07:00N 35°52' W 121°53'612.0
2017-Aug-13 06:30N 35°47' W 121°50'612.3
2017-Aug-13 06:00N 35°41' W 121°46'612.3
2017-Aug-13 05:30N 35°36' W 121°42'612.1
2017-Aug-13 04:59N 35°30' W 121°38'612.1
2017-Aug-13 04:30N 35°25' W 121°35'612.2
2017-Aug-13 04:00N 35°20' W 121°31'612.3
2017-Aug-13 03:30N 35°15' W 121°28'612.8
2017-Aug-13 03:00N 35°09' W 121°24'612.5
2017-Aug-13 02:30N 35°04' W 121°20'612.1
2017-Aug-13 02:01N 34°58' W 121°16'712.9
2017-Aug-13 01:30N 34°53' W 121°13'713.1
2017-Aug-13 00:58N 34°47' W 121°08'612.6
2017-Aug-13 00:30N 34°42' W 121°05'612.4
2017-Aug-13 00:00N 34°36' W 121°01'612.6
2017-Aug-12 23:30N 34°31' W 120°57'612.2
2017-Aug-12 23:00N 34°26' W 120°52'713.3
2017-Aug-12 22:30N 34°25' W 120°44'713.3
2017-Aug-12 22:00N 34°23' W 120°36'713.6
2017-Aug-12 21:30N 34°21' W 120°29'713.7
2017-Aug-12 21:00N 34°19' W 120°21'713.9
2017-Aug-12 20:30N 34°18' W 120°12'713.5
2017-Aug-12 20:00N 34°16' W 120°05'713.7
2017-Aug-12 19:30N 34°14' W 119°57'713.5
2017-Aug-12 19:00N 34°12' W 119°49'713.5
2017-Aug-12 18:30N 34°10' W 119°41'713.6
2017-Aug-12 18:00N 34°09' W 119°33'713.9
2017-Aug-12 17:30N 34°07' W 119°25'713.7
2017-Aug-12 17:00N 34°05' W 119°17'713.4
2017-Aug-12 16:31N 34°02' W 119°10'713.2
2017-Aug-12 16:00N 33°59' W 119°03'510.7
2017-Aug-12 15:31N 33°56' W 118°57'510.7
2017-Aug-12 15:00N 33°53' W 118°52'510.6
2017-Aug-12 14:30N 33°51' W 118°46'511.0
2017-Aug-12 14:01N 33°48' W 118°40'611.0
2017-Aug-12 13:31N 33°45' W 118°35'510.5
2017-Aug-12 13:01N 33°43' W 118°29'510.3
2017-Aug-12 12:31N 33°40' W 118°24'510.1
2017-Aug-12 12:00N 33°39' W 118°18'4 8.9
2017-Aug-12 11:30N 33°42' W 118°15'3 5.6
2017-Aug-12 11:00N 33°45' W 118°16'1 1.8
2017-Aug-12 10:31N 33°45' W 118°16'0 0.0
2017-Aug-12 10:00N 33°45' W 118°16'0 0.0
2017-Aug-12 09:29N 33°45' W 118°16'0 0.0
2017-Aug-12 08:59N 33°45' W 118°16'0 0.0
2017-Aug-12 08:29N 33°45' W 118°16'0 0.1
2017-Aug-12 07:59N 33°45' W 118°16'0 0.1
2017-Aug-12 07:29N 33°45' W 118°16'0 0.0
2017-Aug-12 06:59N 33°45' W 118°16'0 0.0
2017-Aug-12 06:29N 33°45' W 118°16'0 0.0
2017-Aug-12 05:59N 33°45' W 118°16'0 0.1
2017-Aug-12 05:29N 33°45' W 118°16'0 0.1
2017-Aug-12 04:59N 33°45' W 118°16'0 0.0
2017-Aug-12 04:29N 33°45' W 118°16'0 0.0
2017-Aug-12 03:59N 33°45' W 118°16'0 0.0
2017-Aug-12 03:29N 33°45' W 118°16'0 0.0
2017-Aug-12 03:00N 33°45' W 118°16'0 0.0
2017-Aug-12 02:29N 33°45' W 118°16'0 0.0
2017-Aug-12 01:59N 33°45' W 118°16'0 0.0
2017-Aug-12 01:29N 33°45' W 118°16'0 0.0
2017-Aug-12 00:59N 33°45' W 118°16'0 0.0
2017-Aug-12 00:29N 33°45' W 118°16'0 0.1
2017-Aug-11 23:59N 33°45' W 118°16'0 0.1
2017-Aug-11 23:26N 33°45' W 118°16'0 0.0
2017-Aug-11 22:59N 33°45' W 118°16'0 0.0
2017-Aug-11 22:29N 33°45' W 118°16'0 0.1
2017-Aug-11 21:59N 33°45' W 118°16'0 0.1
2017-Aug-11 21:29N 33°45' W 118°16'0 0.0
2017-Aug-11 20:59N 33°45' W 118°16'0 0.0
2017-Aug-11 20:29N 33°45' W 118°16'0 0.0
2017-Aug-11 19:59N 33°45' W 118°16'0 0.0
2017-Aug-11 19:23N 33°45' W 118°16'0 0.0
2017-Aug-11 18:59N 33°45' W 118°16'0 0.0
2017-Aug-11 18:29N 33°45' W 118°16'0 0.0
2017-Aug-11 17:53N 33°45' W 118°16'0 0.0
2017-Aug-11 17:29N 33°45' W 118°16'0 0.1
2017-Aug-11 16:56N 33°45' W 118°16'0 0.1
2017-Aug-11 16:29N 33°45' W 118°16'0 0.0
2017-Aug-11 15:59N 33°45' W 118°16'0 0.0
2017-Aug-11 15:29N 33°45' W 118°16'0 0.0
2017-Aug-11 15:00N 33°45' W 118°16'0 0.0
2017-Aug-11 13:59N 33°45' W 118°16'0 0.0
2017-Aug-11 13:29N 33°45' W 118°16'0 0.0
2017-Aug-11 12:59N 33°45' W 118°16'0 0.0
2017-Aug-11 12:29N 33°45' W 118°16'0 0.0
2017-Aug-11 11:59N 33°45' W 118°16'0 0.0
2017-Aug-11 11:29N 33°45' W 118°16'0 0.0
2017-Aug-11 10:59N 33°45' W 118°16'0 0.0
2017-Aug-11 10:29N 33°45' W 118°16'0 0.1
2017-Aug-11 09:59N 33°45' W 118°16'0 0.1
2017-Aug-11 09:29N 33°45' W 118°16'0 0.0
2017-Aug-11 08:59N 33°45' W 118°16'0 0.0
2017-Aug-11 08:23N 33°45' W 118°16'0 0.0
2017-Aug-11 07:59N 33°45' W 118°16'0 0.0
2017-Aug-11 07:29N 33°45' W 118°16'0 0.1
2017-Aug-11 06:59N 33°45' W 118°16'0 0.1
2017-Aug-11 06:29N 33°45' W 118°16'0 0.0
2017-Aug-11 05:59N 33°45' W 118°16'0 0.0
2017-Aug-11 05:29N 33°45' W 118°16'0 0.0
2017-Aug-11 04:59N 33°45' W 118°16'0 0.0
2017-Aug-11 04:29N 33°45' W 118°16'0 0.0
2017-Aug-11 03:59N 33°45' W 118°16'0 0.0
2017-Aug-11 03:29N 33°45' W 118°16'0 0.0
2017-Aug-11 02:59N 33°45' W 118°16'0 0.0
2017-Aug-11 02:26N 33°45' W 118°16'0 0.0
2017-Aug-11 01:59N 33°45' W 118°16'0 0.0
2017-Aug-11 01:29N 33°45' W 118°16'0 0.1
2017-Aug-11 00:59N 33°45' W 118°16'0 0.1
2017-Aug-11 00:29N 33°45' W 118°16'0 0.0
2017-Aug-10 23:59N 33°45' W 118°16'0 0.0
2017-Aug-10 23:29N 33°45' W 118°16'0 0.0
2017-Aug-10 22:59N 33°45' W 118°16'0 0.0
2017-Aug-10 22:29N 33°45' W 118°16'0 0.0
2017-Aug-10 21:59N 33°45' W 118°16'0 0.0
2017-Aug-10 21:29N 33°45' W 118°16'0 0.0
2017-Aug-10 20:59N 33°45' W 118°16'0 0.0
2017-Aug-10 20:29N 33°45' W 118°16'0 0.0
2017-Aug-10 19:59N 33°45' W 118°16'0 0.0
2017-Aug-10 19:29N 33°45' W 118°16'0 0.0
2017-Aug-10 18:59N 33°45' W 118°16'0 0.1
2017-Aug-10 18:29N 33°45' W 118°16'0 0.1
2017-Aug-10 17:59N 33°45' W 118°16'0 0.0
2017-Aug-10 17:29N 33°45' W 118°16'0 0.0
2017-Aug-10 16:59N 33°45' W 118°16'0 0.0
2017-Aug-10 16:26N 33°45' W 118°16'0 0.0
2017-Aug-10 15:59N 33°45' W 118°16'0 0.0
2017-Aug-10 15:29N 33°45' W 118°16'0 0.0
2017-Aug-10 14:59N 33°45' W 118°16'0 0.0
2017-Aug-10 14:23N 33°45' W 118°16'0 0.0
2017-Aug-10 13:56N 33°45' W 118°16'0 0.0
2017-Aug-10 13:29N 33°45' W 118°16'0 0.1
2017-Aug-10 12:41N 33°45' W 118°16'0 0.2
2017-Aug-10 12:23N 33°45' W 118°16'0 0.0
2017-Aug-10 11:59N 33°45' W 118°16'0 0.0
2017-Aug-10 11:29N 33°45' W 118°16'0 0.1
2017-Aug-10 10:59N 33°45' W 118°16'0 0.1
2017-Aug-10 10:26N 33°45' W 118°16'0 0.1
2017-Aug-10 09:59N 33°45' W 118°16'0 0.1
2017-Aug-10 09:29N 33°45' W 118°16'0 0.0
2017-Aug-10 08:59N 33°45' W 118°16'0 0.0
2017-Aug-10 08:29N 33°45' W 118°16'0 0.0
2017-Aug-10 07:53N 33°45' W 118°16'0 0.0
2017-Aug-10 07:29N 33°45' W 118°16'0 0.0
2017-Aug-10 06:59N 33°45' W 118°16'0 0.0
2017-Aug-10 06:29N 33°45' W 118°16'0 0.0
2017-Aug-10 05:59N 33°45' W 118°16'0 0.0
2017-Aug-10 05:29N 33°45' W 118°16'0 0.0
2017-Aug-10 04:59N 33°45' W 118°16'0 0.0
2017-Aug-10 04:29N 33°45' W 118°16'0 0.0
2017-Aug-10 03:59N 33°45' W 118°16'0 0.0
2017-Aug-10 03:30N 33°45' W 118°16'0 0.0
2017-Aug-10 02:59N 33°45' W 118°16'0 0.0
2017-Aug-10 02:29N 33°45' W 118°16'0 0.0
2017-Aug-10 01:59N 33°45' W 118°16'0 0.0
2017-Aug-10 01:29N 33°45' W 118°16'0 0.0
2017-Aug-10 00:59N 33°45' W 118°16'0 0.0
2017-Aug-10 00:29N 33°45' W 118°16'0 0.0
2017-Aug-09 23:59N 33°45' W 118°16'0 0.0
2017-Aug-09 23:29N 33°45' W 118°16'0 0.1
2017-Aug-09 23:00N 33°45' W 118°16'2 3.6
2017-Aug-09 22:30N 33°44' W 118°16'3 6.4
2017-Aug-09 22:00N 33°41' W 118°14'3 6.5
2017-Aug-09 21:30N 33°38' W 118°15'4 8.8
2017-Aug-09 21:00N 33°36' W 118°20'510.2
2017-Aug-09 20:30N 33°38' W 118°25'510.3
2017-Aug-09 20:00N 33°41' W 118°31'611.1
2017-Aug-09 19:30N 33°43' W 118°36'611.2
2017-Aug-09 19:00N 33°46' W 118°42'611.1
2017-Aug-09 18:30N 33°49' W 118°48'611.1
2017-Aug-09 18:00N 33°52' W 118°54'510.8
2017-Aug-09 17:30N 33°55' W 118°59'510.5
2017-Aug-09 17:00N 33°57' W 119°05'510.9
2017-Aug-09 16:30N 33°60' W 119°11'510.9
2017-Aug-09 16:00N 34°02' W 119°17'5 9.4
2017-Aug-09 15:30N 34°03' W 119°22'714.8
2017-Aug-09 15:00N 34°05' W 119°31'918.5
2017-Aug-09 14:30N 34°08' W 119°41'918.1
2017-Aug-09 14:00N 34°10' W 119°52'917.8
2017-Aug-09 13:30N 34°13' W 120°02'918.2
2017-Aug-09 13:00N 34°15' W 120°13'917.5
2017-Aug-09 12:30N 34°18' W 120°23'917.6
2017-Aug-09 12:00N 34°20' W 120°33'917.9
2017-Aug-09 11:30N 34°23' W 120°44'918.1
2017-Aug-09 11:01N 34°25' W 120°54'917.9
2017-Aug-09 10:30N 34°27' W 121°05'917.9
2017-Aug-09 10:00N 34°30' W 121°15'917.5
2017-Aug-09 09:30N 34°33' W 121°25'917.6
2017-Aug-09 09:01N 34°36' W 121°35'917.7
2017-Aug-09 08:31N 34°39' W 121°45'917.8
2017-Aug-09 08:00N 34°42' W 121°56'917.3
2017-Aug-09 07:30N 34°45' W 122°06'917.5
2017-Aug-09 06:58N 34°48' W 122°16'817.3
2017-Aug-09 06:29N 34°51' W 122°26'817.4
2017-Aug-09 06:00N 34°53' W 122°35'918.0
2017-Aug-09 05:31N 34°56' W 122°46'917.9
2017-Aug-09 05:00N 34°59' W 122°56'917.6
2017-Aug-09 04:30N 35°02' W 123°06'917.7
2017-Aug-09 04:00N 35°05' W 123°17'918.3
2017-Aug-09 03:31N 35°08' W 123°27'1119.6
2017-Aug-09 02:58N 35°11' W 123°39'16719.7
2017-Aug-08 18:29N 36°09' W 126°52'10719.4
2017-Aug-08 12:58N 37°04' W 128°46'1019.8
2017-Aug-08 12:29N 37°09' W 128°56'1719.1
2017-Aug-08 11:34N 37°19' W 129°15'119.3
2017-Aug-08 11:30N 37°19' W 129°16'1019.1
2017-Aug-08 10:58N 37°25' W 129°27'919.2
2017-Aug-08 10:31N 37°29' W 129°37'1019.2
2017-Aug-08 09:58N 37°35' W 129°48'919.3
2017-Aug-08 09:31N 37°39' W 129°57'1119.4
2017-Aug-08 08:56N 37°45' W 130°09'819.1
2017-Aug-08 08:30N 37°50' W 130°18'1119.1
2017-Aug-08 07:57N 37°55' W 130°30'1319.3
2017-Aug-08 07:15N 38°02' W 130°44'519.0
2017-Aug-08 07:00N 38°04' W 130°49'1018.9
2017-Aug-08 06:30N 38°09' W 130°60'919.0
2017-Aug-08 06:00N 38°14' W 131°10'1018.8
2017-Aug-08 05:30N 38°19' W 131°20'918.8
2017-Aug-08 05:01N 38°24' W 131°30'1418.9
2017-Aug-08 04:16N 38°32' W 131°45'818.9
2017-Aug-08 03:50N 38°36' W 131°54'618.9
2017-Aug-08 03:30N 38°39' W 132°01'1019.1
2017-Aug-08 03:00N 38°44' W 132°12'919.3
2017-Aug-08 02:31N 38°49' W 132°22'1219.4
2017-Aug-08 01:52N 38°55' W 132°36'719.4
2017-Aug-08 01:30N 38°59' W 132°43'4219.2
2017-Aug-07 23:19N 39°21' W 133°29'619.0
2017-Aug-07 23:00N 39°25' W 133°36'1319.2
2017-Aug-07 22:18N 39°31' W 133°51'8019.1
2017-Aug-07 18:05N 40°14' W 135°20'419.0
2017-Aug-07 17:53N 40°16' W 135°24'1619.2
2017-Aug-07 17:03N 40°24' W 135°42'119.3
2017-Aug-07 17:00N 40°24' W 135°43'2119.4
2017-Aug-07 15:54N 40°36' W 136°07'919.4
2017-Aug-07 15:27N 40°40' W 136°17'919.4
2017-Aug-07 15:00N 40°45' W 136°27'1019.4
2017-Aug-07 14:29N 40°50' W 136°38'1919.7
2017-Aug-07 13:32N 40°60' W 136°59'118.9
2017-Aug-07 13:30N 41°00' W 137°00'1019.5
2017-Aug-07 13:00N 41°05' W 137°11'1019.5
2017-Aug-07 12:30N 41°09' W 137°23'1019.8
2017-Aug-07 11:59N 41°14' W 137°35'  

Dump ship's entire track history